Time;durP1;ratioP1;P1;durP2;ratioP2;P2;SDS_P1;SDS_P2;PMS_P1;PMS_P2;Temp;Humidity;BMP_temperature;BMP_pressure;BME280_temperature;BME280_humidity;BME280_pressure;Samples;Min_cycle;Max_cycle;Signal;HPM_P1;HPM_P2
2023/12/09 00:00:54;;;;;;;5.57;3.25;;;9.80;90.00;;;;;;5025435;28;20030;-69
2023/12/09 00:03:20;;;;;;;8.02;3.80;;;9.80;90.10;;;;;;5027165;28;20506;-60
2023/12/09 00:05:45;;;;;;;7.88;2.45;;;9.80;90.00;;;;;;5024976;28;20020;-59
2023/12/09 00:08:11;;;;;;;4.15;2.10;;;9.80;90.00;;;;;;5019939;28;20041;-59
2023/12/09 00:10:37;;;;;;;9.80;3.03;;;9.80;90.00;;;;;;5026365;28;20493;-69
2023/12/09 00:13:03;;;;;;;10.38;4.35;;;9.80;90.00;;;;;;5027004;28;20032;-69
2023/12/09 00:15:28;;;;;;;5.80;2.30;;;9.80;90.00;;;;;;5011389;28;20029;-59
2023/12/09 00:17:54;;;;;;;4.90;2.22;;;9.80;90.00;;;;;;5029553;28;20025;-60
2023/12/09 00:20:20;;;;;;;2.47;1.90;;;9.80;90.20;;;;;;5026196;28;20041;-60
2023/12/09 00:22:46;;;;;;;3.97;2.40;;;9.80;90.00;;;;;;5023421;28;20109;-60
2023/12/09 00:25:11;;;;;;;10.32;3.08;;;9.80;90.00;;;;;;5028524;28;20049;-59
2023/12/09 00:27:37;;;;;;;9.85;2.95;;;9.80;90.00;;;;;;5030939;28;20033;-59
2023/12/09 00:30:05;;;;;;;7.18;2.85;;;9.80;89.90;;;;;;5033068;28;20026;-69
2023/12/09 00:32:30;;;;;;;9.63;2.70;;;9.80;90.00;;;;;;5030808;28;20038;-69
2023/12/09 00:34:56;;;;;;;10.50;3.97;;;9.80;89.90;;;;;;5032824;28;20107;-70
2023/12/09 00:37:21;;;;;;;10.48;3.65;;;9.80;90.00;;;;;;5034002;28;20616;-70
2023/12/09 00:39:47;;;;;;;5.13;2.13;;;9.80;90.00;;;;;;5027986;28;20095;-70
2023/12/09 00:42:13;;;;;;;10.68;3.35;;;9.90;90.00;;;;;;5029971;28;20053;-70
2023/12/09 00:44:39;;;;;;;4.70;2.85;;;9.90;90.00;;;;;;5024928;28;20079;-69
2023/12/09 00:47:04;;;;;;;9.73;2.75;;;9.90;90.00;;;;;;5031720;28;20041;-69
2023/12/09 00:49:30;;;;;;;8.10;3.22;;;9.90;89.90;;;;;;5030946;28;20436;-69
2023/12/09 00:51:56;;;;;;;8.32;3.30;;;9.90;89.80;;;;;;5040095;28;20369;-59
2023/12/09 00:54:21;;;;;;;13.60;3.03;;;9.90;89.90;;;;;;5011199;28;20045;-69
2023/12/09 00:56:47;;;;;;;9.65;3.55;;;9.90;90.00;;;;;;5029096;28;20029;-69
2023/12/09 00:59:13;;;;;;;5.25;3.00;;;9.80;90.00;;;;;;5015570;28;20030;-69
2023/12/09 01:01:39;;;;;;;7.55;3.97;;;9.80;90.00;;;;;;5036120;28;20063;-69
2023/12/09 01:04:05;;;;;;;6.70;2.65;;;9.90;90.10;;;;;;4992346;28;20056;-70
2023/12/09 01:06:31;;;;;;;6.35;3.20;;;9.90;90.10;;;;;;5031429;28;20037;-70
2023/12/09 01:08:57;;;;;;;9.57;3.95;;;9.90;90.10;;;;;;5025590;28;20091;-70
2023/12/09 01:11:24;;;;;;;4.93;2.35;;;9.90;90.00;;;;;;5033268;28;20036;-71
2023/12/09 01:13:50;;;;;;;9.60;3.25;;;9.90;90.00;;;;;;5033517;28;20022;-70
2023/12/09 01:16:15;;;;;;;7.65;2.83;;;9.90;90.00;;;;;;5032985;28;20060;-70
2023/12/09 01:18:41;;;;;;;9.13;3.80;;;9.90;90.00;;;;;;5028612;28;20029;-70
2023/12/09 01:21:09;;;;;;;6.30;3.13;;;9.90;89.90;;;;;;5030972;28;20029;-70
2023/12/09 01:23:35;;;;;;;7.03;2.50;;;9.90;90.00;;;;;;4993272;28;20390;-70
2023/12/09 01:26:01;;;;;;;4.13;2.15;;;9.90;90.00;;;;;;5029735;28;20053;-61
2023/12/09 01:28:27;;;;;;;6.18;3.10;;;9.90;89.90;;;;;;5010993;28;20034;-61
2023/12/09 01:30:53;;;;;;;4.45;2.55;;;9.90;89.90;;;;;;5033120;28;20721;-70
2023/12/09 01:33:19;;;;;;;7.93;3.20;;;9.90;89.90;;;;;;5019808;28;20076;-71
2023/12/09 01:35:44;;;;;;;6.85;2.75;;;9.90;90.00;;;;;;5031334;28;20026;-70
2023/12/09 01:38:10;;;;;;;22.45;5.05;;;9.90;90.00;;;;;;5007080;28;20040;-70
2023/12/09 01:40:36;;;;;;;9.95;3.20;;;9.80;89.90;;;;;;5037373;28;20143;-70
2023/12/09 01:43:01;;;;;;;2.70;1.48;;;9.90;89.90;;;;;;5028071;28;20400;-70
2023/12/09 01:45:27;;;;;;;7.97;2.50;;;9.90;89.90;;;;;;5027815;28;20045;-70
2023/12/09 01:47:53;;;;;;;5.90;2.03;;;9.90;89.80;;;;;;5032530;28;20025;-70
2023/12/09 01:50:19;;;;;;;12.10;2.75;;;9.90;89.70;;;;;;5040185;28;20036;-70
2023/12/09 01:52:45;;;;;;;6.88;2.65;;;9.90;89.60;;;;;;5027726;28;20041;-71
2023/12/09 01:55:12;;;;;;;5.60;3.00;;;9.90;89.70;;;;;;5036191;28;20045;-70
2023/12/09 01:57:38;;;;;;;6.97;2.72;;;9.90;89.70;;;;;;5018902;28;20450;-71
2023/12/09 02:00:04;;;;;;;4.78;2.63;;;9.90;89.60;;;;;;5033468;28;20033;-70
2023/12/09 02:02:30;;;;;;;6.68;2.08;;;9.90;89.70;;;;;;5033078;28;20029;-71
2023/12/09 02:04:58;;;;;;;10.48;2.40;;;9.80;89.70;;;;;;5030001;28;20112;-61
2023/12/09 02:07:24;;;;;;;6.53;2.28;;;9.80;89.70;;;;;;5032230;28;20045;-62
2023/12/09 02:09:50;;;;;;;6.70;3.05;;;9.90;89.70;;;;;;5015834;28;20504;-61
2023/12/09 02:12:34;;;;;;;11.07;2.95;;;9.90;89.60;;;;;;5013409;28;20025;-61
2023/12/09 02:15:05;;;;;;;9.10;3.10;;;9.80;89.50;;;;;;5037020;28;20518;-61
2023/12/09 02:17:42;;;;;;;9.77;2.53;;;9.80;89.70;;;;;;5039376;28;20036;-61
2023/12/09 02:20:12;;;;;;;7.45;2.80;;;9.80;89.60;;;;;;5028096;28;20029;-63
2023/12/09 02:22:38;;;;;;;6.38;2.45;;;9.70;89.70;;;;;;5033449;28;20036;-60
2023/12/09 02:25:04;;;;;;;7.25;2.67;;;9.70;89.80;;;;;;5032481;28;20034;-59
2023/12/09 02:27:52;;;;;;;8.13;2.75;;;9.70;89.80;;;;;;5037066;28;20154;-59
2023/12/09 02:30:29;;;;;;;6.95;3.65;;;9.70;89.60;;;;;;5035605;28;20048;-59
2023/12/09 02:32:56;;;;;;;11.02;3.00;;;9.70;89.70;;;;;;5036996;28;20053;-59
2023/12/09 02:35:24;;;;;;;14.00;3.15;;;9.70;89.70;;;;;;5027584;28;20032;-59
2023/12/09 02:37:51;;;;;;;6.57;3.38;;;9.70;89.70;;;;;;5034575;28;20044;-60
2023/12/09 02:40:18;;;;;;;8.13;2.40;;;9.70;89.60;;;;;;5037544;28;20049;-59
2023/12/09 02:42:44;;;;;;;6.32;2.95;;;9.70;89.60;;;;;;5031923;28;20071;-59
2023/12/09 02:45:11;;;;;;;10.50;2.95;;;9.70;89.60;;;;;;5020152;28;20036;-60
2023/12/09 02:47:36;;;;;;;3.88;2.08;;;9.70;89.60;;;;;;5014761;28;20055;-59
2023/12/09 02:50:03;;;;;;;15.90;3.13;;;9.70;89.70;;;;;;5029862;28;20069;-59
2023/12/09 02:52:29;;;;;;;5.47;2.83;;;9.70;89.60;;;;;;5034125;28;20112;-59
2023/12/09 02:54:54;;;;;;;9.77;2.72;;;9.70;89.50;;;;;;5032509;28;20134;-59
2023/12/09 02:57:20;;;;;;;6.57;3.38;;;9.70;89.50;;;;;;5030793;28;20441;-59
2023/12/09 02:59:46;;;;;;;10.43;4.10;;;9.70;89.60;;;;;;5032022;28;20053;-60
2023/12/09 03:02:12;;;;;;;4.72;2.47;;;9.70;89.50;;;;;;5024811;28;20402;-59
2023/12/09 03:04:37;;;;;;;7.78;2.67;;;9.70;89.50;;;;;;5020404;28;20036;-69
2023/12/09 03:07:03;;;;;;;8.43;3.00;;;9.70;89.50;;;;;;5021596;28;20037;-69
2023/12/09 03:09:29;;;;;;;11.93;3.35;;;9.70;89.40;;;;;;5038849;28;20120;-70
2023/12/09 03:11:54;;;;;;;11.25;3.35;;;9.70;89.50;;;;;;5017966;28;20515;-69
2023/12/09 03:14:22;;;;;;;8.52;2.13;;;9.70;89.40;;;;;;5021214;28;20025;-69
2023/12/09 03:16:47;;;;;;;6.35;3.03;;;9.60;89.40;;;;;;5032550;28;20025;-69
2023/12/09 03:19:13;;;;;;;7.43;3.75;;;9.70;89.30;;;;;;5034076;28;20039;-69
2023/12/09 03:21:39;;;;;;;11.38;3.08;;;9.60;89.30;;;;;;5019107;28;20054;-60
2023/12/09 03:24:05;;;;;;;6.00;2.83;;;9.60;89.50;;;;;;5032903;28;20124;-59
2023/12/09 03:26:31;;;;;;;6.10;2.63;;;9.70;89.50;;;;;;5030533;28;20557;-59
2023/12/09 03:28:57;;;;;;;6.07;3.03;;;9.70;89.30;;;;;;5030980;28;20504;-60
2023/12/09 03:31:23;;;;;;;6.18;2.53;;;9.70;89.30;;;;;;5029914;28;20108;-60
2023/12/09 03:33:48;;;;;;;8.55;2.50;;;9.70;89.20;;;;;;5012613;28;20033;-59
2023/12/09 03:36:14;;;;;;;2.78;2.35;;;9.70;89.20;;;;;;5027902;28;20380;-59
2023/12/09 03:38:40;;;;;;;14.18;2.92;;;9.70;89.20;;;;;;5038068;28;20029;-59
2023/12/09 03:41:06;;;;;;;10.85;2.83;;;9.70;89.10;;;;;;5027227;28;20121;-59
2023/12/09 03:43:32;;;;;;;7.68;2.60;;;9.70;89.00;;;;;;5020301;28;20041;-59
2023/12/09 03:45:58;;;;;;;6.15;2.25;;;9.70;89.10;;;;;;5019333;28;20021;-59
2023/12/09 03:48:28;;;;;;;6.72;3.03;;;9.70;89.00;;;;;;5035376;28;20029;-69
2023/12/09 03:50:54;;;;;;;9.57;3.15;;;9.70;89.00;;;;;;5031291;28;20327;-69
2023/12/09 03:53:20;;;;;;;3.65;2.45;;;9.70;89.00;;;;;;5030079;28;20037;-69
2023/12/09 03:55:45;;;;;;;6.80;2.25;;;9.60;89.00;;;;;;5030523;28;20472;-69
2023/12/09 03:58:11;;;;;;;6.15;2.35;;;9.70;89.10;;;;;;5019512;28;20393;-69
2023/12/09 04:00:37;;;;;;;5.00;2.60;;;9.70;89.00;;;;;;5021064;28;20033;-69
2023/12/09 04:03:03;;;;;;;9.27;2.80;;;9.60;89.00;;;;;;5033829;28;20063;-69
2023/12/09 04:05:29;;;;;;;7.95;3.42;;;9.60;89.00;;;;;;5034212;28;20059;-69
2023/12/09 04:07:55;;;;;;;6.13;2.90;;;9.60;89.00;;;;;;5011477;28;20108;-69
2023/12/09 04:10:21;;;;;;;5.82;2.38;;;9.60;89.00;;;;;;5032023;28;20041;-69
2023/12/09 04:12:46;;;;;;;9.93;3.72;;;9.50;89.00;;;;;;5002716;28;20029;-59
2023/12/09 04:15:12;;;;;;;6.35;2.83;;;9.50;89.00;;;;;;5032463;28;20044;-59
2023/12/09 04:17:38;;;;;;;18.25;3.33;;;9.60;89.10;;;;;;5012949;28;20025;-59
2023/12/09 04:20:08;;;;;;;4.40;2.58;;;9.60;89.10;;;;;;5032577;28;20029;-60
2023/12/09 04:22:37;;;;;;;10.05;3.05;;;9.50;88.90;;;;;;5025950;28;20504;-60
2023/12/09 04:25:04;;;;;;;4.90;2.80;;;9.60;89.00;;;;;;5037711;28;20021;-60
2023/12/09 04:27:32;;;;;;;7.45;2.17;;;9.60;89.00;;;;;;5033721;28;20083;-60
2023/12/09 04:29:58;;;;;;;5.20;1.85;;;9.60;89.60;;;;;;5036384;28;20429;-59
2023/12/09 04:32:24;;;;;;;7.45;3.03;;;9.60;89.00;;;;;;5029747;28;20030;-59
2023/12/09 04:34:49;;;;;;;3.92;2.10;;;9.60;88.90;;;;;;5033129;28;20037;-59
2023/12/09 04:37:15;;;;;;;5.55;1.83;;;9.60;88.80;;;;;;5029542;28;20029;-59
2023/12/09 04:39:41;;;;;;;7.30;1.75;;;9.60;88.80;;;;;;5031117;28;20041;-60
2023/12/09 04:42:06;;;;;;;6.07;2.20;;;9.60;88.80;;;;;;5032001;28;20038;-59
2023/12/09 04:44:32;;;;;;;10.07;2.80;;;9.60;88.80;;;;;;5029434;28;20095;-59
2023/12/09 04:46:58;;;;;;;5.78;2.00;;;9.60;88.70;;;;;;5033375;28;20036;-61
2023/12/09 04:49:23;;;;;;;6.90;1.55;;;9.60;88.80;;;;;;5016815;28;20448;-61
2023/12/09 04:51:49;;;;;;;7.28;2.63;;;9.50;88.80;;;;;;5028083;28;20482;-60
2023/12/09 04:54:15;;;;;;;4.05;2.15;;;9.60;88.80;;;;;;5035539;28;20492;-60
2023/12/09 04:56:40;;;;;;;6.13;2.10;;;9.60;88.80;;;;;;5005212;28;20034;-60
2023/12/09 04:59:06;;;;;;;3.03;1.70;;;9.60;88.70;;;;;;5031107;28;20030;-61
2023/12/09 05:01:32;;;;;;;5.38;1.52;;;9.60;88.80;;;;;;5013501;28;20032;-60
2023/12/09 05:03:58;;;;;;;1.88;1.25;;;9.60;88.70;;;;;;5025679;28;20037;-70
2023/12/09 05:06:23;;;;;;;4.35;2.13;;;9.60;88.60;;;;;;5000393;28;20039;-70
2023/12/09 05:08:50;;;;;;;7.85;1.85;;;9.60;88.60;;;;;;5028406;28;20466;-61
2023/12/09 05:11:15;;;;;;;4.43;1.77;;;9.50;88.50;;;;;;5028219;28;20030;-61
2023/12/09 05:13:41;;;;;;;8.90;2.63;;;9.50;88.60;;;;;;5030181;28;20023;-61
2023/12/09 05:16:07;;;;;;;3.22;1.70;;;9.40;88.60;;;;;;5029032;28;20389;-60
2023/12/09 05:18:34;;;;;;;4.05;2.25;;;9.40;88.70;;;;;;5028765;28;20033;-70
2023/12/09 05:21:00;;;;;;;4.53;2.28;;;9.40;88.60;;;;;;5025970;28;20025;-70
2023/12/09 05:23:25;;;;;;;4.47;2.33;;;9.30;88.80;;;;;;5025898;28;20037;-70
2023/12/09 05:25:51;;;;;;;2.05;1.30;;;9.30;88.60;;;;;;5030711;28;20025;-70
2023/12/09 05:28:18;;;;;;;3.05;1.63;;;9.30;88.70;;;;;;5029129;28;20048;-70
2023/12/09 05:30:43;;;;;;;8.88;1.77;;;9.30;88.60;;;;;;5032542;28;20025;-70
2023/12/09 05:33:09;;;;;;;18.08;2.90;;;9.30;88.60;;;;;;5022658;28;20029;-70
2023/12/09 05:35:36;;;;;;;3.58;2.25;;;9.20;88.50;;;;;;5028200;28;20108;-70
2023/12/09 05:38:01;;;;;;;5.93;1.90;;;9.20;88.50;;;;;;5032688;28;20041;-61
2023/12/09 05:40:27;;;;;;;3.08;1.50;;;9.20;88.60;;;;;;5031864;28;20049;-60
2023/12/09 05:42:53;;;;;;;4.38;2.10;;;9.20;88.50;;;;;;5035105;28;20037;-61
2023/12/09 05:45:18;;;;;;;4.13;2.40;;;9.10;88.50;;;;;;5027310;28;20038;-60
2023/12/09 05:47:44;;;;;;;4.85;1.90;;;9.10;88.40;;;;;;5027695;28;20113;-70
2023/12/09 05:50:10;;;;;;;1.98;1.30;;;9.00;88.40;;;;;;5028758;28;20033;-70
2023/12/09 05:52:36;;;;;;;5.10;2.05;;;9.00;88.30;;;;;;5005025;28;20065;-70
2023/12/09 05:55:02;;;;;;;5.93;1.80;;;9.00;88.30;;;;;;4994620;28;20040;-70
2023/12/09 05:57:27;;;;;;;9.80;1.98;;;9.00;88.30;;;;;;5029107;28;20056;-69
2023/12/09 05:59:53;;;;;;;2.33;1.25;;;8.90;88.30;;;;;;5014756;28;20033;-69
2023/12/09 06:02:18;;;;;;;3.00;1.50;;;8.90;88.30;;;;;;5031367;28;20037;-69
2023/12/09 06:04:44;;;;;;;2.47;1.77;;;8.90;88.30;;;;;;5034479;28;20052;-69
2023/12/09 06:07:10;;;;;;;1.00;0.73;;;8.90;88.50;;;;;;5029333;28;20029;-69
2023/12/09 06:09:36;;;;;;;6.57;2.33;;;8.90;88.40;;;;;;5032447;28;20087;-69
2023/12/09 06:12:01;;;;;;;2.40;1.55;;;8.80;88.30;;;;;;5033783;28;20022;-69
2023/12/09 06:14:27;;;;;;;2.22;1.20;;;8.90;88.40;;;;;;5029910;28;20025;-69
2023/12/09 06:16:53;;;;;;;2.80;1.20;;;8.90;88.40;;;;;;5018519;28;20026;-69
2023/12/09 06:19:18;;;;;;;2.13;1.55;;;8.90;88.20;;;;;;5024785;28;20095;-69
2023/12/09 06:21:44;;;;;;;4.50;1.10;;;8.90;88.20;;;;;;5036296;28;20445;-69
2023/12/09 06:24:11;;;;;;;1.77;1.15;;;8.90;88.20;;;;;;5026661;28;20037;-69
2023/12/09 06:26:47;;;;;;;3.38;1.63;;;8.90;88.20;;;;;;5032485;28;20048;-70
2023/12/09 06:29:16;;;;;;;2.70;1.45;;;8.90;88.10;;;;;;5025574;28;20057;-70
2023/12/09 06:31:41;;;;;;;3.45;1.15;;;8.80;88.10;;;;;;5034859;28;20025;-70
2023/12/09 06:34:07;;;;;;;9.50;2.40;;;8.80;88.10;;;;;;5032750;28;20401;-70
2023/12/09 06:36:33;;;;;;;1.63;1.02;;;8.80;88.10;;;;;;5031299;28;20524;-70
2023/12/09 06:38:58;;;;;;;5.18;2.08;;;8.80;88.20;;;;;;5038987;28;20115;-70
2023/12/09 06:41:24;;;;;;;5.63;1.67;;;8.80;88.20;;;;;;5035235;28;20065;-70
2023/12/09 06:43:49;;;;;;;4.78;2.33;;;8.90;88.20;;;;;;5029559;28;20060;-61
2023/12/09 06:46:15;;;;;;;2.35;1.35;;;8.90;88.10;;;;;;5016340;28;20457;-60
2023/12/09 06:48:41;;;;;;;4.45;1.50;;;8.90;88.10;;;;;;5037082;28;20041;-60
2023/12/09 06:51:17;;;;;;;1.60;1.10;;;8.90;88.10;;;;;;5035915;28;20039;-61
2023/12/09 06:53:43;;;;;;;7.85;1.98;;;9.00;88.00;;;;;;5028955;28;20029;-61
2023/12/09 06:56:17;;;;;;;7.90;2.05;;;8.90;87.90;;;;;;5011756;28;20110;-61
2023/12/09 06:58:43;;;;;;;5.13;1.83;;;9.00;88.00;;;;;;5035085;28;20388;-61
2023/12/09 07:01:08;;;;;;;4.90;2.50;;;8.90;88.00;;;;;;5027778;28;20049;-70
2023/12/09 07:03:37;;;;;;;4.22;1.60;;;8.90;88.00;;;;;;5017137;28;20021;-70
2023/12/09 07:06:04;;;;;;;4.22;1.05;;;8.90;88.10;;;;;;5019163;28;20033;-70
2023/12/09 07:08:30;;;;;;;4.53;2.47;;;8.90;88.10;;;;;;5012359;28;20397;-70
2023/12/09 07:10:59;;;;;;;5.30;1.77;;;8.90;88.10;;;;;;5015802;28;20040;-70
2023/12/09 07:13:24;;;;;;;2.97;1.20;;;8.90;88.30;;;;;;5035938;28;20037;-70
2023/12/09 07:15:50;;;;;;;3.33;1.88;;;8.90;88.20;;;;;;5029667;28;20031;-70
2023/12/09 07:18:16;;;;;;;7.63;2.13;;;8.90;88.10;;;;;;5036205;28;20026;-70
2023/12/09 07:20:42;;;;;;;5.85;1.83;;;8.90;88.20;;;;;;5031286;28;20037;-70
2023/12/09 07:23:07;;;;;;;2.83;1.67;;;8.90;88.20;;;;;;5033703;28;20425;-71
2023/12/09 07:25:33;;;;;;;2.78;1.80;;;8.90;88.20;;;;;;5035261;28;20491;-68
2023/12/09 07:27:58;;;;;;;5.35;2.05;;;8.90;88.20;;;;;;5015389;28;20074;-70
2023/12/09 07:30:24;;;;;;;2.53;1.55;;;8.90;88.20;;;;;;5037006;28;20037;-70
2023/12/09 07:32:50;;;;;;;5.28;1.50;;;8.80;88.10;;;;;;5038443;28;20033;-70
2023/12/09 07:35:16;;;;;;;5.15;2.05;;;8.80;88.30;;;;;;5014678;28;20466;-70
2023/12/09 07:37:43;;;;;;;5.28;2.05;;;8.80;88.80;;;;;;5033598;28;20066;-70
2023/12/09 07:40:11;;;;;;;4.97;1.45;;;8.80;88.10;;;;;;5029237;28;20040;-70
2023/12/09 07:42:38;;;;;;;8.10;1.50;;;8.80;88.20;;;;;;5033340;28;20033;-70
2023/12/09 07:45:04;;;;;;;3.60;1.70;;;8.80;88.20;;;;;;5028903;28;20025;-70
2023/12/09 07:47:30;;;;;;;7.93;1.83;;;8.80;88.10;;;;;;5034022;28;20104;-70
2023/12/09 07:49:55;;;;;;;3.13;1.75;;;8.80;88.10;;;;;;5017269;28;20528;-70
2023/12/09 07:52:21;;;;;;;3.95;1.88;;;8.80;88.10;;;;;;5033481;28;20088;-70
2023/12/09 07:54:47;;;;;;;2.90;1.92;;;8.80;88.10;;;;;;5038132;28;20026;-70
2023/12/09 07:57:14;;;;;;;4.53;1.83;;;8.80;88.20;;;;;;5033618;28;20059;-61
2023/12/09 07:59:39;;;;;;;4.25;1.80;;;8.80;88.20;;;;;;5030700;28;20037;-61
2023/12/09 08:02:05;;;;;;;7.40;2.28;;;8.90;88.10;;;;;;5020612;28;20427;-61
2023/12/09 08:04:31;;;;;;;8.13;1.75;;;8.90;88.00;;;;;;5035005;28;20060;-61
2023/12/09 08:06:57;;;;;;;5.63;1.58;;;8.90;88.10;;;;;;5016391;28;20029;-61
2023/12/09 08:09:22;;;;;;;4.95;1.40;;;8.90;88.00;;;;;;5023841;28;20042;-61
2023/12/09 08:11:48;;;;;;;4.45;1.50;;;8.90;88.00;;;;;;5016441;28;20026;-61
2023/12/09 08:14:14;;;;;;;9.50;1.92;;;8.90;88.00;;;;;;5037714;28;20033;-61
2023/12/09 08:16:40;;;;;;;3.80;1.40;;;8.90;87.90;;;;;;5036028;28;20365;-61
2023/12/09 08:19:06;;;;;;;5.28;2.10;;;8.90;87.90;;;;;;5028565;28;20026;-60
2023/12/09 08:21:37;;;;;;;3.80;1.48;;;8.90;87.90;;;;;;5030280;28;21044;-60
2023/12/09 08:24:03;;;;;;;3.38;1.08;;;8.90;87.90;;;;;;5029194;28;20091;-61
2023/12/09 08:26:29;;;;;;;3.67;1.58;;;8.90;87.90;;;;;;5038295;28;20429;-61
2023/12/09 08:28:55;;;;;;;3.08;0.77;;;9.00;88.00;;;;;;5017554;28;20026;-70
2023/12/09 08:31:21;;;;;;;3.95;1.70;;;9.00;88.00;;;;;;5030673;28;20720;-70
2023/12/09 08:33:46;;;;;;;2.30;1.50;;;9.00;87.80;;;;;;5027644;28;20026;-70
2023/12/09 08:36:12;;;;;;;5.13;1.52;;;9.00;87.70;;;;;;5032193;28;20037;-70
2023/12/09 08:38:38;;;;;;;11.32;2.28;;;9.10;87.70;;;;;;5032773;28;20033;-70
2023/12/09 08:41:04;;;;;;;2.35;0.93;;;9.00;87.70;;;;;;5033149;28;20041;-70
2023/12/09 08:43:29;;;;;;;3.33;1.17;;;9.10;87.80;;;;;;5028648;28;20038;-70
2023/12/09 08:45:55;;;;;;;3.63;1.23;;;9.10;87.70;;;;;;5022198;28;20502;-70
2023/12/09 08:48:21;;;;;;;2.70;1.45;;;9.20;87.70;;;;;;5032333;28;20033;-70
2023/12/09 08:50:46;;;;;;;2.35;1.23;;;9.20;87.60;;;;;;5028731;28;20120;-70
2023/12/09 08:53:12;;;;;;;2.88;1.50;;;9.20;87.50;;;;;;5013524;28;20060;-70
2023/12/09 08:55:38;;;;;;;17.60;2.05;;;9.20;87.50;;;;;;5015768;28;20052;-70
2023/12/09 08:58:03;;;;;;;6.28;1.88;;;9.30;87.40;;;;;;5038776;28;20032;-68
2023/12/09 09:00:30;;;;;;;6.18;1.63;;;9.30;87.30;;;;;;5032073;28;20152;-68
2023/12/09 09:02:56;;;;;;;3.30;1.30;;;9.30;87.20;;;;;;5035844;28;20037;-68
2023/12/09 09:05:22;;;;;;;5.15;1.60;;;9.30;87.20;;;;;;5030804;28;20029;-70
2023/12/09 09:07:48;;;;;;;4.07;1.65;;;9.20;87.00;;;;;;5027873;28;20477;-70
2023/12/09 09:10:15;;;;;;;2.58;1.10;;;9.30;87.20;;;;;;5027978;28;20038;-70
2023/12/09 09:12:40;;;;;;;3.20;1.85;;;9.30;87.20;;;;;;5029211;28;20480;-70
2023/12/09 09:15:09;;;;;;;6.15;1.58;;;9.30;87.10;;;;;;5031349;28;20086;-70
2023/12/09 09:17:35;;;;;;;3.75;1.60;;;9.30;87.20;;;;;;5011674;28;20029;-70
2023/12/09 09:20:01;;;;;;;3.55;1.25;;;9.30;87.10;;;;;;5029568;28;20026;-70
2023/12/09 09:22:27;;;;;;;7.65;2.10;;;9.30;87.10;;;;;;5036367;28;20033;-70
2023/12/09 09:24:54;;;;;;;2.78;1.65;;;9.40;87.10;;;;;;5031092;28;20047;-70
2023/12/09 09:27:19;;;;;;;4.25;1.25;;;9.30;87.00;;;;;;5032286;28;20040;-70
2023/12/09 09:29:46;;;;;;;1.75;1.15;;;9.40;86.90;;;;;;5027329;28;20046;-61
2023/12/09 09:32:12;;;;;;;6.28;1.20;;;9.40;87.00;;;;;;5031867;28;20060;-61
2023/12/09 09:34:37;;;;;;;2.85;1.00;;;9.40;86.80;;;;;;5026434;28;20469;-61
2023/12/09 09:37:03;;;;;;;4.82;1.35;;;9.50;86.80;;;;;;5028511;28;20524;-61
2023/12/09 09:39:29;;;;;;;3.00;1.48;;;9.50;86.80;;;;;;5026952;28;20598;-61
2023/12/09 09:42:19;;;;;;;11.07;2.25;;;9.50;86.70;;;;;;5036858;28;20667;-60
2023/12/09 09:44:56;;;;;;;2.58;1.38;;;9.50;86.50;;;;;;5024699;28;20163;-61
2023/12/09 09:47:23;;;;;;;8.90;1.98;;;9.40;86.70;;;;;;5036321;28;20064;-60
2023/12/09 09:49:51;;;;;;;2.17;1.00;;;9.50;86.70;;;;;;5021561;28;20037;-60
2023/12/09 09:52:19;;;;;;;2.10;1.00;;;9.50;86.60;;;;;;5023666;28;20022;-61
2023/12/09 09:54:46;;;;;;;1.85;0.88;;;9.60;86.50;;;;;;5027894;28;20504;-60
2023/12/09 09:57:12;;;;;;;2.17;1.15;;;9.50;86.40;;;;;;5015058;28;20041;-60
2023/12/09 09:59:39;;;;;;;1.38;1.05;;;9.60;86.40;;;;;;5012711;28;20026;-69
2023/12/09 10:02:07;;;;;;;1.00;0.50;;;9.60;86.30;;;;;;5010618;28;20044;-69
2023/12/09 10:04:33;;;;;;;3.83;1.02;;;9.70;86.30;;;;;;5034227;28;20107;-68
2023/12/09 10:07:00;;;;;;;4.13;0.90;;;9.70;86.20;;;;;;5015964;28;20051;-69
2023/12/09 10:09:26;;;;;;;8.60;1.08;;;9.80;86.10;;;;;;5014405;28;20034;-60
2023/12/09 10:11:51;;;;;;;1.08;0.68;;;9.80;85.90;;;;;;5027164;28;20029;-60
2023/12/09 10:14:18;;;;;;;2.00;0.65;;;9.90;85.90;;;;;;5030903;28;20033;-69
2023/12/09 10:16:45;;;;;;;5.80;0.95;;;10.00;85.90;;;;;;5015405;28;20044;-69
2023/12/09 10:19:14;;;;;;;5.82;1.77;;;10.10;85.90;;;;;;5026465;28;20117;-69
2023/12/09 10:21:40;;;;;;;6.70;1.85;;;10.20;85.40;;;;;;5025451;28;20033;-69
2023/12/09 10:24:06;;;;;;;8.10;1.63;;;10.20;85.30;;;;;;5026464;28;20567;-69
2023/12/09 10:26:32;;;;;;;5.60;1.42;;;10.30;85.20;;;;;;5034468;28;20103;-69
2023/12/09 10:28:58;;;;;;;6.13;1.90;;;10.30;84.70;;;;;;5027502;28;20493;-69
2023/12/09 10:31:25;;;;;;;3.58;0.73;;;10.30;84.70;;;;;;5031794;28;20034;-60
2023/12/09 10:33:50;;;;;;;2.45;1.38;;;10.30;84.80;;;;;;5025583;28;20116;-60
2023/12/09 10:36:17;;;;;;;5.65;1.58;;;10.20;84.80;;;;;;5024929;28;20118;-69
2023/12/09 10:38:42;;;;;;;4.70;1.38;;;10.20;84.90;;;;;;5028885;28;20028;-69
2023/12/09 10:41:11;;;;;;;5.95;1.10;;;10.20;84.40;;;;;;5018732;28;20049;-60
2023/12/09 10:43:37;;;;;;;2.28;1.10;;;10.20;84.70;;;;;;5026485;28;20143;-59
2023/12/09 10:46:03;;;;;;;1.92;1.27;;;10.20;84.80;;;;;;5029283;28;20516;-60
2023/12/09 10:48:30;;;;;;;8.27;1.52;;;10.20;84.70;;;;;;5029444;28;20530;-60
2023/12/09 10:50:56;;;;;;;3.55;0.80;;;10.20;84.80;;;;;;5027253;28;20033;-60
2023/12/09 10:53:21;;;;;;;2.90;0.90;;;10.20;84.70;;;;;;5017138;28;20488;-60
2023/12/09 10:55:48;;;;;;;0.95;0.90;;;10.20;84.80;;;;;;5038015;28;20033;-69
2023/12/09 10:58:15;;;;;;;3.53;1.67;;;10.20;84.80;;;;;;5018401;28;20463;-69
2023/12/09 11:00:41;;;;;;;0.80;0.80;;;10.30;84.50;;;;;;5030562;28;20100;-69
2023/12/09 11:03:08;;;;;;;7.63;1.55;;;10.30;84.20;;;;;;5030930;28;20112;-69
2023/12/09 11:05:44;;;;;;;2.17;1.02;;;10.30;84.20;;;;;;5030267;28;20465;-69
2023/12/09 11:08:12;;;;;;;0.43;0.43;;;10.40;84.20;;;;;;5030367;28;20056;-69
2023/12/09 11:10:38;;;;;;;1.60;0.70;;;10.40;84.20;;;;;;5028535;28;20025;-69
2023/12/09 11:13:04;;;;;;;6.70;1.30;;;10.30;84.00;;;;;;5028865;28;20064;-69
2023/12/09 11:15:32;;;;;;;3.80;1.25;;;10.30;83.80;;;;;;5030830;28;20021;-69
2023/12/09 11:18:08;;;;;;;6.90;1.50;;;10.30;83.90;;;;;;5026518;28;20053;-60
2023/12/09 11:20:40;;;;;;;2.28;0.90;;;10.30;83.80;;;;;;5028024;28;20026;-59
2023/12/09 11:23:11;;;;;;;2.65;0.85;;;10.30;83.90;;;;;;5030102;28;20041;-60
2023/12/09 11:25:43;;;;;;;7.40;1.20;;;10.30;83.90;;;;;;5032937;28;20029;-59
2023/12/09 11:28:12;;;;;;;2.00;0.90;;;10.20;83.90;;;;;;5005303;28;20040;-59
2023/12/09 11:30:44;;;;;;;2.28;0.90;;;10.30;84.00;;;;;;5011785;28;20033;-60
2023/12/09 11:33:10;;;;;;;4.68;1.33;;;10.30;84.00;;;;;;5026706;28;20038;-60
2023/12/09 11:35:37;;;;;;;3.60;0.70;;;10.20;84.10;;;;;;5026975;28;20519;-59
2023/12/09 11:38:07;;;;;;;5.10;1.15;;;10.20;84.10;;;;;;5025000;28;20036;-60
2023/12/09 11:40:33;;;;;;;2.55;0.90;;;10.20;84.10;;;;;;5025448;28;20421;-59
2023/12/09 11:43:01;;;;;;;2.72;1.13;;;10.20;84.20;;;;;;5026268;28;20035;-59
2023/12/09 11:45:29;;;;;;;2.08;1.23;;;10.20;84.20;;;;;;5028606;28;20354;-59
2023/12/09 11:47:57;;;;;;;4.25;1.20;;;10.10;84.10;;;;;;5034003;28;20790;-59
2023/12/09 11:50:22;;;;;;;3.00;1.10;;;10.10;84.00;;;;;;5032896;28;20037;-60
2023/12/09 11:52:48;;;;;;;3.25;0.82;;;10.10;84.10;;;;;;5005724;28;20546;-59
2023/12/09 11:55:19;;;;;;;1.13;0.88;;;10.10;84.10;;;;;;5028546;28;20033;-59
2023/12/09 11:57:45;;;;;;;1.40;0.98;;;10.20;84.20;;;;;;5028625;28;20043;-59
2023/12/09 12:00:11;;;;;;;2.40;1.58;;;10.20;84.20;;;;;;5033598;28;20029;-59
2023/12/09 12:02:44;;;;;;;2.85;1.45;;;10.20;84.00;;;;;;5011204;28;20036;-60
2023/12/09 12:05:14;;;;;;;2.70;1.48;;;10.20;84.10;;;;;;5027853;28;20049;-59
2023/12/09 12:07:40;;;;;;;3.53;1.48;;;10.20;84.20;;;;;;5029067;28;20037;-59
2023/12/09 12:10:07;;;;;;;2.33;1.10;;;10.20;84.20;;;;;;5026982;28;20040;-60
2023/12/09 12:12:33;;;;;;;2.72;1.05;;;10.20;84.30;;;;;;5030584;28;20080;-59
2023/12/09 12:14:58;;;;;;;1.88;1.35;;;10.20;84.30;;;;;;5028497;28;20053;-59
2023/12/09 12:17:24;;;;;;;5.18;1.23;;;10.20;84.30;;;;;;5024007;28;20069;-69
2023/12/09 12:19:50;;;;;;;2.42;1.55;;;10.20;84.40;;;;;;5023737;28;20029;-68
2023/12/09 12:22:17;;;;;;;1.48;0.70;;;10.20;84.50;;;;;;5010215;28;20147;-69
2023/12/09 12:24:44;;;;;;;3.70;1.33;;;10.20;84.50;;;;;;5025585;28;20033;-69
2023/12/09 12:27:10;;;;;;;4.38;1.23;;;10.20;84.60;;;;;;5020176;28;20029;-69
2023/12/09 12:29:40;;;;;;;2.22;0.98;;;10.30;84.90;;;;;;5024333;28;20041;-69
2023/12/09 12:32:07;;;;;;;2.65;1.27;;;10.30;85.00;;;;;;5004130;28;20388;-69
2023/12/09 12:34:33;;;;;;;4.60;1.55;;;10.30;85.00;;;;;;5031911;28;20048;-69
2023/12/09 12:36:59;;;;;;;3.05;1.02;;;10.20;85.10;;;;;;5032877;28;20026;-69
2023/12/09 12:39:25;;;;;;;2.92;1.30;;;10.20;85.30;;;;;;5027589;28;20094;-68
2023/12/09 12:41:51;;;;;;;0.95;0.88;;;10.20;85.40;;;;;;5014257;28;20045;-69
2023/12/09 12:44:17;;;;;;;1.50;0.70;;;10.20;85.50;;;;;;5026734;28;20554;-69
2023/12/09 12:46:43;;;;;;;2.67;1.65;;;10.20;85.70;;;;;;5032042;28;20473;-69
2023/12/09 12:49:08;;;;;;;3.80;1.48;;;10.20;85.70;;;;;;5026918;28;20057;-69